<?xml version="1.0" encoding="UTF-8" standalone="no" ?>
<gpx xmlns="http://www.topografix.com/GPX/1/1" xmlns:xsi="http://www.w3.org/2001/XMLSchema-instance" xsi:schemaLocation="http://www.topografix.com/GPX/1/1 http://www.topografix.com/GPX/1/1/gpx.xsd" version="1.1" creator="VisuGPX - https://www.visugpx.com">
  <metadata>
    <name>MEULAN EVECQUEMONT VAUX</name>
    <desc><![CDATA[FAIT]]></desc>
  </metadata>
  <trk>
    <name><![CDATA[MEULAN EVECQUEMONT VAUX-15535623]]></name>
    <trkseg>
      <trkpt lat="49.00593" lon="1.90721">
        <ele>30</ele>
        <time>2023-01-08T18:09:44Z</time>
      </trkpt>
      <trkpt lat="49.00598" lon="1.90712">
        <ele>30</ele>
        <time>2023-01-08T18:09:54Z</time>
      </trkpt>
      <trkpt lat="49.00592" lon="1.90709">
        <ele>29</ele>
        <time>2023-01-08T18:10:03Z</time>
      </trkpt>
      <trkpt lat="49.00596" lon="1.90697">
        <ele>29</ele>
        <time>2023-01-08T18:10:15Z</time>
      </trkpt>
      <trkpt lat="49.00623" lon="1.90672">
        <ele>29</ele>
        <time>2023-01-08T18:10:57Z</time>
      </trkpt>
      <trkpt lat="49.00644" lon="1.90677">
        <ele>30</ele>
        <time>2023-01-08T18:11:25Z</time>
      </trkpt>
      <trkpt lat="49.00664" lon="1.90693">
        <ele>32</ele>
        <time>2023-01-08T18:11:55Z</time>
      </trkpt>
      <trkpt lat="49.00673" lon="1.90693">
        <ele>33</ele>
        <time>2023-01-08T18:12:07Z</time>
      </trkpt>
      <trkpt lat="49.00694" lon="1.90704">
        <ele>35</ele>
        <time>2023-01-08T18:12:37Z</time>
      </trkpt>
      <trkpt lat="49.00712" lon="1.90696">
        <ele>35</ele>
        <time>2023-01-08T18:13:02Z</time>
      </trkpt>
      <trkpt lat="49.00729" lon="1.90704">
        <ele>37</ele>
        <time>2023-01-08T18:13:26Z</time>
      </trkpt>
      <trkpt lat="49.00753" lon="1.90704">
        <ele>38</ele>
        <time>2023-01-08T18:13:58Z</time>
      </trkpt>
      <trkpt lat="49.00757" lon="1.90707">
        <ele>39</ele>
        <time>2023-01-08T18:14:04Z</time>
      </trkpt>
      <trkpt lat="49.00761" lon="1.90757">
        <ele>44</ele>
        <time>2023-01-08T18:14:48Z</time>
      </trkpt>
      <trkpt lat="49.0078" lon="1.90827">
        <ele>55</ele>
        <time>2023-01-08T18:15:54Z</time>
      </trkpt>
      <trkpt lat="49.00801" lon="1.90813">
        <ele>54</ele>
        <time>2023-01-08T18:16:25Z</time>
      </trkpt>
      <trkpt lat="49.00811" lon="1.90815">
        <ele>55</ele>
        <time>2023-01-08T18:16:38Z</time>
      </trkpt>
      <trkpt lat="49.00824" lon="1.90824">
        <ele>57</ele>
        <time>2023-01-08T18:16:57Z</time>
      </trkpt>
      <trkpt lat="49.00834" lon="1.90843">
        <ele>59</ele>
        <time>2023-01-08T18:17:18Z</time>
      </trkpt>
      <trkpt lat="49.00858" lon="1.90873">
        <ele>60</ele>
        <time>2023-01-08T18:18:00Z</time>
      </trkpt>
      <trkpt lat="49.00914" lon="1.90967">
        <ele>66</ele>
        <time>2023-01-08T18:19:51Z</time>
      </trkpt>
      <trkpt lat="49.00958" lon="1.91051">
        <ele>72</ele>
        <time>2023-01-08T18:21:25Z</time>
      </trkpt>
      <trkpt lat="49.01004" lon="1.91115">
        <ele>75</ele>
        <time>2023-01-08T18:22:48Z</time>
      </trkpt>
      <trkpt lat="49.00993" lon="1.91145">
        <ele>79</ele>
        <time>2023-01-08T18:23:18Z</time>
      </trkpt>
      <trkpt lat="49.00975" lon="1.91168">
        <ele>84</ele>
        <time>2023-01-08T18:23:50Z</time>
      </trkpt>
      <trkpt lat="49.00957" lon="1.91204">
        <ele>88</ele>
        <time>2023-01-08T18:24:29Z</time>
      </trkpt>
      <trkpt lat="49.0096" lon="1.91194">
        <ele>87</ele>
        <time>2023-01-08T18:24:39Z</time>
      </trkpt>
      <trkpt lat="49.00932" lon="1.91187">
        <ele>89</ele>
        <time>2023-01-08T18:25:17Z</time>
      </trkpt>
      <trkpt lat="49.00898" lon="1.91168">
        <ele>90</ele>
        <time>2023-01-08T18:26:05Z</time>
      </trkpt>
      <trkpt lat="49.0087" lon="1.91185">
        <ele>92</ele>
        <time>2023-01-08T18:26:45Z</time>
      </trkpt>
      <trkpt lat="49.00859" lon="1.91199">
        <ele>93</ele>
        <time>2023-01-08T18:27:04Z</time>
      </trkpt>
      <trkpt lat="49.00853" lon="1.91223">
        <ele>94</ele>
        <time>2023-01-08T18:27:27Z</time>
      </trkpt>
      <trkpt lat="49.00837" lon="1.9124">
        <ele>95</ele>
        <time>2023-01-08T18:27:53Z</time>
      </trkpt>
      <trkpt lat="49.00834" lon="1.9125">
        <ele>95</ele>
        <time>2023-01-08T18:28:03Z</time>
      </trkpt>
      <trkpt lat="49.00832" lon="1.91313">
        <ele>93</ele>
        <time>2023-01-08T18:28:58Z</time>
      </trkpt>
      <trkpt lat="49.00826" lon="1.91337">
        <ele>91</ele>
        <time>2023-01-08T18:29:20Z</time>
      </trkpt>
      <trkpt lat="49.00831" lon="1.9137">
        <ele>92</ele>
        <time>2023-01-08T18:29:50Z</time>
      </trkpt>
      <trkpt lat="49.00829" lon="1.91398">
        <ele>90</ele>
        <time>2023-01-08T18:30:15Z</time>
      </trkpt>
      <trkpt lat="49.00848" lon="1.91479">
        <ele>90</ele>
        <time>2023-01-08T18:31:30Z</time>
      </trkpt>
      <trkpt lat="49.00873" lon="1.91539">
        <ele>92</ele>
        <time>2023-01-08T18:32:32Z</time>
      </trkpt>
      <trkpt lat="49.00882" lon="1.91588">
        <ele>93</ele>
        <time>2023-01-08T18:33:17Z</time>
      </trkpt>
      <trkpt lat="49.00892" lon="1.91721">
        <ele>96</ele>
        <time>2023-01-08T18:35:14Z</time>
      </trkpt>
      <trkpt lat="49.00887" lon="1.91742">
        <ele>94</ele>
        <time>2023-01-08T18:35:33Z</time>
      </trkpt>
      <trkpt lat="49.00902" lon="1.91769">
        <ele>97</ele>
        <time>2023-01-08T18:36:04Z</time>
      </trkpt>
      <trkpt lat="49.00928" lon="1.91792">
        <ele>100</ele>
        <time>2023-01-08T18:36:44Z</time>
      </trkpt>
      <trkpt lat="49.00945" lon="1.91814">
        <ele>101</ele>
        <time>2023-01-08T18:37:14Z</time>
      </trkpt>
      <trkpt lat="49.00924" lon="1.91869">
        <ele>100</ele>
        <time>2023-01-08T18:38:10Z</time>
      </trkpt>
      <trkpt lat="49.00924" lon="1.91901">
        <ele>99</ele>
        <time>2023-01-08T18:38:38Z</time>
      </trkpt>
      <trkpt lat="49.00933" lon="1.91943">
        <ele>99</ele>
        <time>2023-01-08T18:39:17Z</time>
      </trkpt>
      <trkpt lat="49.00949" lon="1.92085">
        <ele>100</ele>
        <time>2023-01-08T18:41:23Z</time>
      </trkpt>
      <trkpt lat="49.00968" lon="1.92152">
        <ele>103</ele>
        <time>2023-01-08T18:42:27Z</time>
      </trkpt>
      <trkpt lat="49.0097" lon="1.92227">
        <ele>103</ele>
        <time>2023-01-08T18:43:32Z</time>
      </trkpt>
      <trkpt lat="49.00979" lon="1.92273">
        <ele>104</ele>
        <time>2023-01-08T18:44:14Z</time>
      </trkpt>
      <trkpt lat="49.00979" lon="1.92314">
        <ele>103</ele>
        <time>2023-01-08T18:44:50Z</time>
      </trkpt>
      <trkpt lat="49.00986" lon="1.9234">
        <ele>105</ele>
        <time>2023-01-08T18:45:15Z</time>
      </trkpt>
      <trkpt lat="49.00985" lon="1.92395">
        <ele>102</ele>
        <time>2023-01-08T18:46:03Z</time>
      </trkpt>
      <trkpt lat="49.00996" lon="1.92429">
        <ele>104</ele>
        <time>2023-01-08T18:46:36Z</time>
      </trkpt>
      <trkpt lat="49.00996" lon="1.92443">
        <ele>103</ele>
        <time>2023-01-08T18:46:48Z</time>
      </trkpt>
      <trkpt lat="49.01018" lon="1.92505">
        <ele>102</ele>
        <time>2023-01-08T18:47:50Z</time>
      </trkpt>
      <trkpt lat="49.01025" lon="1.92582">
        <ele>97</ele>
        <time>2023-01-08T18:48:58Z</time>
      </trkpt>
      <trkpt lat="49.0103" lon="1.92596">
        <ele>98</ele>
        <time>2023-01-08T18:49:12Z</time>
      </trkpt>
      <trkpt lat="49.01044" lon="1.9261">
        <ele>101</ele>
        <time>2023-01-08T18:49:34Z</time>
      </trkpt>
      <trkpt lat="49.01057" lon="1.9265">
        <ele>102</ele>
        <time>2023-01-08T18:50:13Z</time>
      </trkpt>
      <trkpt lat="49.01069" lon="1.92713">
        <ele>103</ele>
        <time>2023-01-08T18:51:11Z</time>
      </trkpt>
      <trkpt lat="49.0109" lon="1.92783">
        <ele>103</ele>
        <time>2023-01-08T18:52:18Z</time>
      </trkpt>
      <trkpt lat="49.01093" lon="1.92826">
        <ele>100</ele>
        <time>2023-01-08T18:52:56Z</time>
      </trkpt>
      <trkpt lat="49.01112" lon="1.92872">
        <ele>101</ele>
        <time>2023-01-08T18:53:44Z</time>
      </trkpt>
      <trkpt lat="49.01116" lon="1.92943">
        <ele>101</ele>
        <time>2023-01-08T18:54:46Z</time>
      </trkpt>
      <trkpt lat="49.01124" lon="1.92961">
        <ele>102</ele>
        <time>2023-01-08T18:55:05Z</time>
      </trkpt>
      <trkpt lat="49.01136" lon="1.93012">
        <ele>103</ele>
        <time>2023-01-08T18:55:53Z</time>
      </trkpt>
      <trkpt lat="49.0114" lon="1.9306">
        <ele>103</ele>
        <time>2023-01-08T18:56:35Z</time>
      </trkpt>
      <trkpt lat="49.01161" lon="1.93126">
        <ele>107</ele>
        <time>2023-01-08T18:57:39Z</time>
      </trkpt>
      <trkpt lat="49.01171" lon="1.93137">
        <ele>109</ele>
        <time>2023-01-08T18:57:56Z</time>
      </trkpt>
      <trkpt lat="49.01185" lon="1.93141">
        <ele>111</ele>
        <time>2023-01-08T18:58:15Z</time>
      </trkpt>
      <trkpt lat="49.01196" lon="1.93141">
        <ele>112</ele>
        <time>2023-01-08T18:58:29Z</time>
      </trkpt>
      <trkpt lat="49.01224" lon="1.93128">
        <ele>115</ele>
        <time>2023-01-08T18:59:08Z</time>
      </trkpt>
      <trkpt lat="49.01235" lon="1.93149">
        <ele>117</ele>
        <time>2023-01-08T18:59:32Z</time>
      </trkpt>
      <trkpt lat="49.01237" lon="1.93259">
        <ele>117</ele>
        <time>2023-01-08T19:01:08Z</time>
      </trkpt>
      <trkpt lat="49.01257" lon="1.9335">
        <ele>121</ele>
        <time>2023-01-08T19:02:32Z</time>
      </trkpt>
      <trkpt lat="49.01264" lon="1.9341">
        <ele>123</ele>
        <time>2023-01-08T19:03:25Z</time>
      </trkpt>
      <trkpt lat="49.01276" lon="1.93444">
        <ele>123</ele>
        <time>2023-01-08T19:03:59Z</time>
      </trkpt>
      <trkpt lat="49.01278" lon="1.93487">
        <ele>124</ele>
        <time>2023-01-08T19:04:37Z</time>
      </trkpt>
      <trkpt lat="49.01296" lon="1.93539">
        <ele>125</ele>
        <time>2023-01-08T19:05:28Z</time>
      </trkpt>
      <trkpt lat="49.01298" lon="1.93588">
        <ele>126</ele>
        <time>2023-01-08T19:06:11Z</time>
      </trkpt>
      <trkpt lat="49.01304" lon="1.9362">
        <ele>127</ele>
        <time>2023-01-08T19:06:41Z</time>
      </trkpt>
      <trkpt lat="49.013" lon="1.93643">
        <ele>128</ele>
        <time>2023-01-08T19:07:01Z</time>
      </trkpt>
      <trkpt lat="49.01301" lon="1.93668">
        <ele>129</ele>
        <time>2023-01-08T19:07:23Z</time>
      </trkpt>
      <trkpt lat="49.01331" lon="1.93778">
        <ele>137</ele>
        <time>2023-01-08T19:09:08Z</time>
      </trkpt>
      <trkpt lat="49.01341" lon="1.93855">
        <ele>139</ele>
        <time>2023-01-08T19:10:16Z</time>
      </trkpt>
      <trkpt lat="49.01358" lon="1.93893">
        <ele>139</ele>
        <time>2023-01-08T19:10:57Z</time>
      </trkpt>
      <trkpt lat="49.0138" lon="1.93997">
        <ele>139</ele>
        <time>2023-01-08T19:12:32Z</time>
      </trkpt>
      <trkpt lat="49.01404" lon="1.94024">
        <ele>138</ele>
        <time>2023-01-08T19:13:12Z</time>
      </trkpt>
      <trkpt lat="49.01419" lon="1.94046">
        <ele>136</ele>
        <time>2023-01-08T19:13:40Z</time>
      </trkpt>
      <trkpt lat="49.01431" lon="1.94076">
        <ele>134</ele>
        <time>2023-01-08T19:14:11Z</time>
      </trkpt>
      <trkpt lat="49.01443" lon="1.94094">
        <ele>133</ele>
        <time>2023-01-08T19:14:33Z</time>
      </trkpt>
      <trkpt lat="49.01448" lon="1.94095">
        <ele>134</ele>
        <time>2023-01-08T19:14:40Z</time>
      </trkpt>
      <trkpt lat="49.01444" lon="1.94181">
        <ele>130</ele>
        <time>2023-01-08T19:15:55Z</time>
      </trkpt>
      <trkpt lat="49.01414" lon="1.94275">
        <ele>127</ele>
        <time>2023-01-08T19:17:27Z</time>
      </trkpt>
      <trkpt lat="49.01389" lon="1.94329">
        <ele>130</ele>
        <time>2023-01-08T19:18:25Z</time>
      </trkpt>
      <trkpt lat="49.01378" lon="1.94393">
        <ele>133</ele>
        <time>2023-01-08T19:19:22Z</time>
      </trkpt>
      <trkpt lat="49.01382" lon="1.94511">
        <ele>131</ele>
        <time>2023-01-08T19:21:06Z</time>
      </trkpt>
      <trkpt lat="49.0137" lon="1.94489">
        <ele>131</ele>
        <time>2023-01-08T19:21:31Z</time>
      </trkpt>
      <trkpt lat="49.01354" lon="1.94494">
        <ele>130</ele>
        <time>2023-01-08T19:21:53Z</time>
      </trkpt>
      <trkpt lat="49.01336" lon="1.94484">
        <ele>129</ele>
        <time>2023-01-08T19:22:18Z</time>
      </trkpt>
      <trkpt lat="49.01326" lon="1.94496">
        <ele>127</ele>
        <time>2023-01-08T19:22:35Z</time>
      </trkpt>
      <trkpt lat="49.01325" lon="1.94513">
        <ele>126</ele>
        <time>2023-01-08T19:22:50Z</time>
      </trkpt>
      <trkpt lat="49.01312" lon="1.94517">
        <ele>123</ele>
        <time>2023-01-08T19:23:08Z</time>
      </trkpt>
      <trkpt lat="49.01305" lon="1.94526">
        <ele>121</ele>
        <time>2023-01-08T19:23:20Z</time>
      </trkpt>
      <trkpt lat="49.01258" lon="1.94548">
        <ele>112</ele>
        <time>2023-01-08T19:24:26Z</time>
      </trkpt>
      <trkpt lat="49.01208" lon="1.94555">
        <ele>96</ele>
        <time>2023-01-08T19:25:33Z</time>
      </trkpt>
      <trkpt lat="49.01201" lon="1.94565">
        <ele>94</ele>
        <time>2023-01-08T19:25:45Z</time>
      </trkpt>
      <trkpt lat="49.01186" lon="1.94722">
        <ele>87</ele>
        <time>2023-01-08T19:28:04Z</time>
      </trkpt>
      <trkpt lat="49.01157" lon="1.94808">
        <ele>77</ele>
        <time>2023-01-08T19:29:29Z</time>
      </trkpt>
      <trkpt lat="49.01153" lon="1.94836">
        <ele>75</ele>
        <time>2023-01-08T19:29:54Z</time>
      </trkpt>
      <trkpt lat="49.01145" lon="1.94858">
        <ele>73</ele>
        <time>2023-01-08T19:30:16Z</time>
      </trkpt>
      <trkpt lat="49.01145" lon="1.94879">
        <ele>73</ele>
        <time>2023-01-08T19:30:34Z</time>
      </trkpt>
      <trkpt lat="49.01125" lon="1.94922">
        <ele>68</ele>
        <time>2023-01-08T19:31:21Z</time>
      </trkpt>
      <trkpt lat="49.0112" lon="1.94948">
        <ele>67</ele>
        <time>2023-01-08T19:31:44Z</time>
      </trkpt>
      <trkpt lat="49.01108" lon="1.94972">
        <ele>64</ele>
        <time>2023-01-08T19:32:11Z</time>
      </trkpt>
      <trkpt lat="49.01095" lon="1.95017">
        <ele>61</ele>
        <time>2023-01-08T19:32:54Z</time>
      </trkpt>
      <trkpt lat="49.0108" lon="1.9504">
        <ele>57</ele>
        <time>2023-01-08T19:33:22Z</time>
      </trkpt>
      <trkpt lat="49.0105" lon="1.95055">
        <ele>51</ele>
        <time>2023-01-08T19:34:04Z</time>
      </trkpt>
      <trkpt lat="49.01043" lon="1.95065">
        <ele>50</ele>
        <time>2023-01-08T19:34:17Z</time>
      </trkpt>
      <trkpt lat="49.01034" lon="1.95091">
        <ele>48</ele>
        <time>2023-01-08T19:34:43Z</time>
      </trkpt>
      <trkpt lat="49.01036" lon="1.951">
        <ele>49</ele>
        <time>2023-01-08T19:34:51Z</time>
      </trkpt>
      <trkpt lat="49.01023" lon="1.95151">
        <ele>48</ele>
        <time>2023-01-08T19:35:39Z</time>
      </trkpt>
      <trkpt lat="49.01007" lon="1.952">
        <ele>47</ele>
        <time>2023-01-08T19:36:27Z</time>
      </trkpt>
      <trkpt lat="49.00981" lon="1.95209">
        <ele>43</ele>
        <time>2023-01-08T19:37:03Z</time>
      </trkpt>
      <trkpt lat="49.00968" lon="1.95234">
        <ele>41</ele>
        <time>2023-01-08T19:37:30Z</time>
      </trkpt>
      <trkpt lat="49.00963" lon="1.95254">
        <ele>41</ele>
        <time>2023-01-08T19:37:49Z</time>
      </trkpt>
      <trkpt lat="49.00966" lon="1.9531">
        <ele>44</ele>
        <time>2023-01-08T19:38:38Z</time>
      </trkpt>
      <trkpt lat="49.00957" lon="1.95357">
        <ele>43</ele>
        <time>2023-01-08T19:39:21Z</time>
      </trkpt>
      <trkpt lat="49.00941" lon="1.95391">
        <ele>39</ele>
        <time>2023-01-08T19:39:58Z</time>
      </trkpt>
      <trkpt lat="49.00926" lon="1.95405">
        <ele>35</ele>
        <time>2023-01-08T19:40:21Z</time>
      </trkpt>
      <trkpt lat="49.00906" lon="1.95444">
        <ele>33</ele>
        <time>2023-01-08T19:41:05Z</time>
      </trkpt>
      <trkpt lat="49.00903" lon="1.95571">
        <ele>37</ele>
        <time>2023-01-08T19:42:56Z</time>
      </trkpt>
      <trkpt lat="49.00898" lon="1.95594">
        <ele>37</ele>
        <time>2023-01-08T19:43:17Z</time>
      </trkpt>
      <trkpt lat="49.00892" lon="1.95604">
        <ele>36</ele>
        <time>2023-01-08T19:43:29Z</time>
      </trkpt>
      <trkpt lat="49.00884" lon="1.95643">
        <ele>35</ele>
        <time>2023-01-08T19:44:05Z</time>
      </trkpt>
      <trkpt lat="49.00863" lon="1.95709">
        <ele>33</ele>
        <time>2023-01-08T19:45:09Z</time>
      </trkpt>
      <trkpt lat="49.00823" lon="1.95801">
        <ele>30</ele>
        <time>2023-01-08T19:46:46Z</time>
      </trkpt>
      <trkpt lat="49.00803" lon="1.95834">
        <ele>29</ele>
        <time>2023-01-08T19:47:25Z</time>
      </trkpt>
      <trkpt lat="49.00767" lon="1.95868">
        <ele>28</ele>
        <time>2023-01-08T19:48:21Z</time>
      </trkpt>
      <trkpt lat="49.00739" lon="1.95973">
        <ele>29</ele>
        <time>2023-01-08T19:50:01Z</time>
      </trkpt>
      <trkpt lat="49.00733" lon="1.9598">
        <ele>28</ele>
        <time>2023-01-08T19:50:11Z</time>
      </trkpt>
      <trkpt lat="49.00725" lon="1.95982">
        <ele>28</ele>
        <time>2023-01-08T19:50:22Z</time>
      </trkpt>
      <trkpt lat="49.00715" lon="1.95977">
        <ele>27</ele>
        <time>2023-01-08T19:50:36Z</time>
      </trkpt>
      <trkpt lat="49.00683" lon="1.95948">
        <ele>24</ele>
        <time>2023-01-08T19:51:25Z</time>
      </trkpt>
      <trkpt lat="49.00634" lon="1.95916">
        <ele>22</ele>
        <time>2023-01-08T19:52:36Z</time>
      </trkpt>
      <trkpt lat="49.00631" lon="1.95915">
        <ele>22</ele>
        <time>2023-01-08T19:52:40Z</time>
      </trkpt>
      <trkpt lat="49.00619" lon="1.95931">
        <ele>22</ele>
        <time>2023-01-08T19:53:02Z</time>
      </trkpt>
      <trkpt lat="49.00593" lon="1.96012">
        <ele>22</ele>
        <time>2023-01-08T19:54:21Z</time>
      </trkpt>
      <trkpt lat="49.00568" lon="1.96072">
        <ele>23</ele>
        <time>2023-01-08T19:55:23Z</time>
      </trkpt>
      <trkpt lat="49.00553" lon="1.96141">
        <ele>23</ele>
        <time>2023-01-08T19:56:27Z</time>
      </trkpt>
      <trkpt lat="49.00542" lon="1.96167">
        <ele>22</ele>
        <time>2023-01-08T19:56:54Z</time>
      </trkpt>
      <trkpt lat="49.00532" lon="1.96211">
        <ele>21</ele>
        <time>2023-01-08T19:57:34Z</time>
      </trkpt>
      <trkpt lat="49.0052" lon="1.96238">
        <ele>20</ele>
        <time>2023-01-08T19:58:03Z</time>
      </trkpt>
      <trkpt lat="49.00511" lon="1.9629">
        <ele>20</ele>
        <time>2023-01-08T19:58:50Z</time>
      </trkpt>
      <trkpt lat="49.00497" lon="1.9633">
        <ele>20</ele>
        <time>2023-01-08T19:59:30Z</time>
      </trkpt>
      <trkpt lat="49.00495" lon="1.96353">
        <ele>20</ele>
        <time>2023-01-08T19:59:50Z</time>
      </trkpt>
      <trkpt lat="49.00478" lon="1.96396">
        <ele>21</ele>
        <time>2023-01-08T20:00:34Z</time>
      </trkpt>
      <trkpt lat="49.00464" lon="1.96453">
        <ele>22</ele>
        <time>2023-01-08T20:01:27Z</time>
      </trkpt>
      <trkpt lat="49.00446" lon="1.96505">
        <ele>23</ele>
        <time>2023-01-08T20:02:19Z</time>
      </trkpt>
      <trkpt lat="49.00435" lon="1.96522">
        <ele>22</ele>
        <time>2023-01-08T20:02:40Z</time>
      </trkpt>
      <trkpt lat="49.00417" lon="1.9657">
        <ele>22</ele>
        <time>2023-01-08T20:03:28Z</time>
      </trkpt>
      <trkpt lat="49.00396" lon="1.96656">
        <ele>22</ele>
        <time>2023-01-08T20:04:48Z</time>
      </trkpt>
      <trkpt lat="49.00381" lon="1.96682">
        <ele>21</ele>
        <time>2023-01-08T20:05:19Z</time>
      </trkpt>
      <trkpt lat="49.00351" lon="1.96772">
        <ele>22</ele>
        <time>2023-01-08T20:06:47Z</time>
      </trkpt>
      <trkpt lat="49.00325" lon="1.96804">
        <ele>22</ele>
        <time>2023-01-08T20:07:32Z</time>
      </trkpt>
      <trkpt lat="49.00317" lon="1.96825">
        <ele>22</ele>
        <time>2023-01-08T20:07:53Z</time>
      </trkpt>
      <trkpt lat="49.00284" lon="1.96848">
        <ele>22</ele>
        <time>2023-01-08T20:08:41Z</time>
      </trkpt>
      <trkpt lat="49.00261" lon="1.96886">
        <ele>22</ele>
        <time>2023-01-08T20:09:27Z</time>
      </trkpt>
      <trkpt lat="49.00233" lon="1.96912">
        <ele>21</ele>
        <time>2023-01-08T20:10:10Z</time>
      </trkpt>
      <trkpt lat="49.00193" lon="1.96966">
        <ele>20</ele>
        <time>2023-01-08T20:11:22Z</time>
      </trkpt>
      <trkpt lat="49.00178" lon="1.96995">
        <ele>20</ele>
        <time>2023-01-08T20:11:54Z</time>
      </trkpt>
      <trkpt lat="49.0017" lon="1.96996">
        <ele>20</ele>
        <time>2023-01-08T20:12:05Z</time>
      </trkpt>
      <trkpt lat="49.00169" lon="1.96992">
        <ele>20</ele>
        <time>2023-01-08T20:12:08Z</time>
      </trkpt>
      <trkpt lat="49.0017" lon="1.97">
        <ele>20</ele>
        <time>2023-01-08T20:12:16Z</time>
      </trkpt>
      <trkpt lat="49.0017" lon="1.96993">
        <ele>20</ele>
        <time>2023-01-08T20:12:22Z</time>
      </trkpt>
      <trkpt lat="49.00164" lon="1.96993">
        <ele>20</ele>
        <time>2023-01-08T20:12:30Z</time>
      </trkpt>
      <trkpt lat="49.00178" lon="1.97045">
        <ele>20</ele>
        <time>2023-01-08T20:13:19Z</time>
      </trkpt>
      <trkpt lat="49.00173" lon="1.97075">
        <ele>20</ele>
        <time>2023-01-08T20:13:46Z</time>
      </trkpt>
      <trkpt lat="49.00155" lon="1.97109">
        <ele>21</ele>
        <time>2023-01-08T20:14:24Z</time>
      </trkpt>
      <trkpt lat="49.00065" lon="1.9722">
        <ele>21</ele>
        <time>2023-01-08T20:16:59Z</time>
      </trkpt>
      <trkpt lat="49.00032" lon="1.97267">
        <ele>21</ele>
        <time>2023-01-08T20:17:59Z</time>
      </trkpt>
      <trkpt lat="48.99968" lon="1.9738">
        <ele>21</ele>
        <time>2023-01-08T20:20:10Z</time>
      </trkpt>
      <trkpt lat="48.99906" lon="1.97449">
        <ele>21</ele>
        <time>2023-01-08T20:21:52Z</time>
      </trkpt>
      <trkpt lat="48.99871" lon="1.97506">
        <ele>22</ele>
        <time>2023-01-08T20:23:01Z</time>
      </trkpt>
      <trkpt lat="48.99831" lon="1.97448">
        <ele>21</ele>
        <time>2023-01-08T20:24:14Z</time>
      </trkpt>
      <trkpt lat="48.99845" lon="1.97464">
        <ele>22</ele>
        <time>2023-01-08T20:24:38Z</time>
      </trkpt>
      <trkpt lat="48.99867" lon="1.97502">
        <ele>22</ele>
        <time>2023-01-08T20:25:22Z</time>
      </trkpt>
      <trkpt lat="48.99866" lon="1.97509">
        <ele>22</ele>
        <time>2023-01-08T20:25:28Z</time>
      </trkpt>
      <trkpt lat="48.99832" lon="1.97575">
        <ele>21</ele>
        <time>2023-01-08T20:26:42Z</time>
      </trkpt>
      <trkpt lat="48.99795" lon="1.97603">
        <ele>21</ele>
        <time>2023-01-08T20:27:37Z</time>
      </trkpt>
      <trkpt lat="48.99773" lon="1.97649">
        <ele>20</ele>
        <time>2023-01-08T20:28:27Z</time>
      </trkpt>
      <trkpt lat="48.99669" lon="1.9781">
        <ele>20</ele>
        <time>2023-01-08T20:31:44Z</time>
      </trkpt>
      <trkpt lat="48.99655" lon="1.97826">
        <ele>20</ele>
        <time>2023-01-08T20:32:08Z</time>
      </trkpt>
      <trkpt lat="48.99628" lon="1.97881">
        <ele>22</ele>
        <time>2023-01-08T20:33:08Z</time>
      </trkpt>
      <trkpt lat="48.99601" lon="1.97921">
        <ele>23</ele>
        <time>2023-01-08T20:33:58Z</time>
      </trkpt>
      <trkpt lat="48.99602" lon="1.97943">
        <ele>23</ele>
        <time>2023-01-08T20:34:17Z</time>
      </trkpt>
      <trkpt lat="48.99681" lon="1.98057">
        <ele>24</ele>
        <time>2023-01-08T20:36:43Z</time>
      </trkpt>
      <trkpt lat="48.99699" lon="1.98071">
        <ele>24</ele>
        <time>2023-01-08T20:37:10Z</time>
      </trkpt>
      <trkpt lat="48.99744" lon="1.98119">
        <ele>26</ele>
        <time>2023-01-08T20:38:23Z</time>
      </trkpt>
      <trkpt lat="48.9977" lon="1.98129">
        <ele>27</ele>
        <time>2023-01-08T20:38:59Z</time>
      </trkpt>
      <trkpt lat="48.99811" lon="1.98166">
        <ele>33</ele>
        <time>2023-01-08T20:40:02Z</time>
      </trkpt>
      <trkpt lat="48.99843" lon="1.98216">
        <ele>43</ele>
        <time>2023-01-08T20:41:03Z</time>
      </trkpt>
      <trkpt lat="48.99859" lon="1.98266">
        <ele>54</ele>
        <time>2023-01-08T20:41:52Z</time>
      </trkpt>
      <trkpt lat="48.99868" lon="1.98277">
        <ele>57</ele>
        <time>2023-01-08T20:42:08Z</time>
      </trkpt>
      <trkpt lat="48.99889" lon="1.98246">
        <ele>57</ele>
        <time>2023-01-08T20:42:47Z</time>
      </trkpt>
      <trkpt lat="48.99925" lon="1.98205">
        <ele>58</ele>
        <time>2023-01-08T20:43:47Z</time>
      </trkpt>
      <trkpt lat="48.99962" lon="1.98145">
        <ele>60</ele>
        <time>2023-01-08T20:44:59Z</time>
      </trkpt>
      <trkpt lat="48.99992" lon="1.98086">
        <ele>59</ele>
        <time>2023-01-08T20:46:04Z</time>
      </trkpt>
      <trkpt lat="49.00013" lon="1.98066">
        <ele>61</ele>
        <time>2023-01-08T20:46:37Z</time>
      </trkpt>
      <trkpt lat="49.00067" lon="1.9796">
        <ele>57</ele>
        <time>2023-01-08T20:48:35Z</time>
      </trkpt>
      <trkpt lat="49.00104" lon="1.97911">
        <ele>57</ele>
        <time>2023-01-08T20:49:40Z</time>
      </trkpt>
      <trkpt lat="49.00141" lon="1.9785">
        <ele>58</ele>
        <time>2023-01-08T20:50:53Z</time>
      </trkpt>
      <trkpt lat="49.00163" lon="1.97795">
        <ele>57</ele>
        <time>2023-01-08T20:51:49Z</time>
      </trkpt>
      <trkpt lat="49.00172" lon="1.97751">
        <ele>54</ele>
        <time>2023-01-08T20:52:29Z</time>
      </trkpt>
      <trkpt lat="49.00187" lon="1.97717">
        <ele>55</ele>
        <time>2023-01-08T20:53:05Z</time>
      </trkpt>
      <trkpt lat="49.00207" lon="1.97683">
        <ele>56</ele>
        <time>2023-01-08T20:53:45Z</time>
      </trkpt>
      <trkpt lat="49.0021" lon="1.97668">
        <ele>55</ele>
        <time>2023-01-08T20:53:59Z</time>
      </trkpt>
      <trkpt lat="49.00245" lon="1.97592">
        <ele>56</ele>
        <time>2023-01-08T20:55:20Z</time>
      </trkpt>
      <trkpt lat="49.00286" lon="1.97523">
        <ele>54</ele>
        <time>2023-01-08T20:56:42Z</time>
      </trkpt>
      <trkpt lat="49.00336" lon="1.97482">
        <ele>53</ele>
        <time>2023-01-08T20:57:58Z</time>
      </trkpt>
      <trkpt lat="49.00355" lon="1.97472">
        <ele>53</ele>
        <time>2023-01-08T20:58:24Z</time>
      </trkpt>
      <trkpt lat="49.00412" lon="1.97459">
        <ele>52</ele>
        <time>2023-01-08T20:59:41Z</time>
      </trkpt>
      <trkpt lat="49.00467" lon="1.97434">
        <ele>47</ele>
        <time>2023-01-08T21:00:58Z</time>
      </trkpt>
      <trkpt lat="49.00485" lon="1.97436">
        <ele>48</ele>
        <time>2023-01-08T21:01:22Z</time>
      </trkpt>
      <trkpt lat="49.00498" lon="1.97432">
        <ele>47</ele>
        <time>2023-01-08T21:01:40Z</time>
      </trkpt>
      <trkpt lat="49.00519" lon="1.9742">
        <ele>45</ele>
        <time>2023-01-08T21:02:10Z</time>
      </trkpt>
      <trkpt lat="49.00497" lon="1.97431">
        <ele>46</ele>
        <time>2023-01-08T21:02:40Z</time>
      </trkpt>
      <trkpt lat="49.00454" lon="1.9744">
        <ele>49</ele>
        <time>2023-01-08T21:03:38Z</time>
      </trkpt>
      <trkpt lat="49.00438" lon="1.97439">
        <ele>49</ele>
        <time>2023-01-08T21:04:00Z</time>
      </trkpt>
      <trkpt lat="49.0035" lon="1.97467">
        <ele>52</ele>
        <time>2023-01-08T21:06:00Z</time>
      </trkpt>
      <trkpt lat="49.00324" lon="1.97485">
        <ele>53</ele>
        <time>2023-01-08T21:06:38Z</time>
      </trkpt>
      <trkpt lat="49.00296" lon="1.97516">
        <ele>54</ele>
        <time>2023-01-08T21:07:24Z</time>
      </trkpt>
      <trkpt lat="49.00293" lon="1.97524">
        <ele>55</ele>
        <time>2023-01-08T21:07:32Z</time>
      </trkpt>
      <trkpt lat="49.00297" lon="1.97526">
        <ele>55</ele>
        <time>2023-01-08T21:07:38Z</time>
      </trkpt>
      <trkpt lat="49.00306" lon="1.9752">
        <ele>56</ele>
        <time>2023-01-08T21:07:51Z</time>
      </trkpt>
      <trkpt lat="49.00319" lon="1.97522">
        <ele>58</ele>
        <time>2023-01-08T21:08:08Z</time>
      </trkpt>
      <trkpt lat="49.00354" lon="1.97541">
        <ele>64</ele>
        <time>2023-01-08T21:08:58Z</time>
      </trkpt>
      <trkpt lat="49.00398" lon="1.97548">
        <ele>68</ele>
        <time>2023-01-08T21:09:57Z</time>
      </trkpt>
      <trkpt lat="49.00409" lon="1.97561">
        <ele>71</ele>
        <time>2023-01-08T21:10:15Z</time>
      </trkpt>
      <trkpt lat="49.0045" lon="1.97577">
        <ele>76</ele>
        <time>2023-01-08T21:11:12Z</time>
      </trkpt>
      <trkpt lat="49.00483" lon="1.97582">
        <ele>79</ele>
        <time>2023-01-08T21:11:56Z</time>
      </trkpt>
      <trkpt lat="49.00501" lon="1.9759">
        <ele>81</ele>
        <time>2023-01-08T21:12:21Z</time>
      </trkpt>
      <trkpt lat="49.00517" lon="1.97587">
        <ele>81</ele>
        <time>2023-01-08T21:12:43Z</time>
      </trkpt>
      <trkpt lat="49.0054" lon="1.97591">
        <ele>82</ele>
        <time>2023-01-08T21:13:14Z</time>
      </trkpt>
      <trkpt lat="49.00572" lon="1.97609">
        <ele>85</ele>
        <time>2023-01-08T21:13:59Z</time>
      </trkpt>
      <trkpt lat="49.00593" lon="1.97629">
        <ele>87</ele>
        <time>2023-01-08T21:14:32Z</time>
      </trkpt>
      <trkpt lat="49.00606" lon="1.97653">
        <ele>89</ele>
        <time>2023-01-08T21:14:59Z</time>
      </trkpt>
      <trkpt lat="49.00625" lon="1.97665">
        <ele>88</ele>
        <time>2023-01-08T21:15:27Z</time>
      </trkpt>
      <trkpt lat="49.00638" lon="1.97725">
        <ele>95</ele>
        <time>2023-01-08T21:16:22Z</time>
      </trkpt>
      <trkpt lat="49.00654" lon="1.97751">
        <ele>97</ele>
        <time>2023-01-08T21:16:53Z</time>
      </trkpt>
      <trkpt lat="49.00657" lon="1.97775">
        <ele>98</ele>
        <time>2023-01-08T21:17:15Z</time>
      </trkpt>
      <trkpt lat="49.00669" lon="1.97791">
        <ele>98</ele>
        <time>2023-01-08T21:17:36Z</time>
      </trkpt>
      <trkpt lat="49.00691" lon="1.9786">
        <ele>96</ele>
        <time>2023-01-08T21:18:43Z</time>
      </trkpt>
      <trkpt lat="49.0069" lon="1.97899">
        <ele>95</ele>
        <time>2023-01-08T21:19:17Z</time>
      </trkpt>
      <trkpt lat="49.00681" lon="1.97931">
        <ele>96</ele>
        <time>2023-01-08T21:19:48Z</time>
      </trkpt>
      <trkpt lat="49.00684" lon="1.97955">
        <ele>95</ele>
        <time>2023-01-08T21:20:09Z</time>
      </trkpt>
      <trkpt lat="49.00699" lon="1.97983">
        <ele>92</ele>
        <time>2023-01-08T21:20:41Z</time>
      </trkpt>
      <trkpt lat="49.0071" lon="1.97988">
        <ele>91</ele>
        <time>2023-01-08T21:20:56Z</time>
      </trkpt>
      <trkpt lat="49.0072" lon="1.98016">
        <ele>92</ele>
        <time>2023-01-08T21:21:24Z</time>
      </trkpt>
      <trkpt lat="49.00733" lon="1.98022">
        <ele>92</ele>
        <time>2023-01-08T21:21:42Z</time>
      </trkpt>
      <trkpt lat="49.00744" lon="1.98043">
        <ele>94</ele>
        <time>2023-01-08T21:22:06Z</time>
      </trkpt>
      <trkpt lat="49.00762" lon="1.98045">
        <ele>95</ele>
        <time>2023-01-08T21:22:30Z</time>
      </trkpt>
      <trkpt lat="49.00777" lon="1.98057">
        <ele>99</ele>
        <time>2023-01-08T21:22:52Z</time>
      </trkpt>
      <trkpt lat="49.00784" lon="1.98074">
        <ele>102</ele>
        <time>2023-01-08T21:23:10Z</time>
      </trkpt>
      <trkpt lat="49.00801" lon="1.98096">
        <ele>107</ele>
        <time>2023-01-08T21:23:40Z</time>
      </trkpt>
      <trkpt lat="49.00804" lon="1.98094">
        <ele>107</ele>
        <time>2023-01-08T21:23:44Z</time>
      </trkpt>
      <trkpt lat="49.00813" lon="1.98113">
        <ele>109</ele>
        <time>2023-01-08T21:24:05Z</time>
      </trkpt>
      <trkpt lat="49.00815" lon="1.98137">
        <ele>111</ele>
        <time>2023-01-08T21:24:26Z</time>
      </trkpt>
      <trkpt lat="49.00805" lon="1.98159">
        <ele>112</ele>
        <time>2023-01-08T21:24:49Z</time>
      </trkpt>
      <trkpt lat="49.00811" lon="1.98168">
        <ele>113</ele>
        <time>2023-01-08T21:25:00Z</time>
      </trkpt>
      <trkpt lat="49.00817" lon="1.98193">
        <ele>115</ele>
        <time>2023-01-08T21:25:24Z</time>
      </trkpt>
      <trkpt lat="49.00827" lon="1.982">
        <ele>117</ele>
        <time>2023-01-08T21:25:38Z</time>
      </trkpt>
      <trkpt lat="49.00808" lon="1.98229">
        <ele>117</ele>
        <time>2023-01-08T21:26:14Z</time>
      </trkpt>
      <trkpt lat="49.00808" lon="1.98237">
        <ele>118</ele>
        <time>2023-01-08T21:26:21Z</time>
      </trkpt>
      <trkpt lat="49.00814" lon="1.98242">
        <ele>119</ele>
        <time>2023-01-08T21:26:30Z</time>
      </trkpt>
      <trkpt lat="49.00839" lon="1.98249">
        <ele>121</ele>
        <time>2023-01-08T21:27:04Z</time>
      </trkpt>
      <trkpt lat="49.0086" lon="1.98246">
        <ele>123</ele>
        <time>2023-01-08T21:27:33Z</time>
      </trkpt>
      <trkpt lat="49.00876" lon="1.98237">
        <ele>124</ele>
        <time>2023-01-08T21:27:55Z</time>
      </trkpt>
      <trkpt lat="49.00896" lon="1.98242">
        <ele>127</ele>
        <time>2023-01-08T21:28:22Z</time>
      </trkpt>
      <trkpt lat="49.00909" lon="1.9825">
        <ele>128</ele>
        <time>2023-01-08T21:28:41Z</time>
      </trkpt>
      <trkpt lat="49.00919" lon="1.98248">
        <ele>129</ele>
        <time>2023-01-08T21:28:54Z</time>
      </trkpt>
      <trkpt lat="49.00928" lon="1.98255">
        <ele>130</ele>
        <time>2023-01-08T21:29:08Z</time>
      </trkpt>
      <trkpt lat="49.00948" lon="1.98255">
        <ele>132</ele>
        <time>2023-01-08T21:29:35Z</time>
      </trkpt>
      <trkpt lat="49.00986" lon="1.98234">
        <ele>133</ele>
        <time>2023-01-08T21:30:29Z</time>
      </trkpt>
      <trkpt lat="49.01003" lon="1.98229">
        <ele>134</ele>
        <time>2023-01-08T21:30:52Z</time>
      </trkpt>
      <trkpt lat="49.01004" lon="1.98215">
        <ele>133</ele>
        <time>2023-01-08T21:31:04Z</time>
      </trkpt>
      <trkpt lat="49.01026" lon="1.9821">
        <ele>132</ele>
        <time>2023-01-08T21:31:34Z</time>
      </trkpt>
      <trkpt lat="49.01039" lon="1.98218">
        <ele>133</ele>
        <time>2023-01-08T21:31:52Z</time>
      </trkpt>
      <trkpt lat="49.01049" lon="1.98234">
        <ele>134</ele>
        <time>2023-01-08T21:32:12Z</time>
      </trkpt>
      <trkpt lat="49.01074" lon="1.98258">
        <ele>137</ele>
        <time>2023-01-08T21:32:51Z</time>
      </trkpt>
      <trkpt lat="49.01092" lon="1.98267">
        <ele>138</ele>
        <time>2023-01-08T21:33:16Z</time>
      </trkpt>
      <trkpt lat="49.0111" lon="1.98291">
        <ele>141</ele>
        <time>2023-01-08T21:33:48Z</time>
      </trkpt>
      <trkpt lat="49.01126" lon="1.98298">
        <ele>142</ele>
        <time>2023-01-08T21:34:11Z</time>
      </trkpt>
      <trkpt lat="49.01134" lon="1.98311">
        <ele>143</ele>
        <time>2023-01-08T21:34:26Z</time>
      </trkpt>
      <trkpt lat="49.01145" lon="1.98316">
        <ele>144</ele>
        <time>2023-01-08T21:34:42Z</time>
      </trkpt>
      <trkpt lat="49.01173" lon="1.98313">
        <ele>143</ele>
        <time>2023-01-08T21:35:19Z</time>
      </trkpt>
      <trkpt lat="49.01186" lon="1.983">
        <ele>143</ele>
        <time>2023-01-08T21:35:40Z</time>
      </trkpt>
      <trkpt lat="49.01197" lon="1.98295">
        <ele>143</ele>
        <time>2023-01-08T21:35:55Z</time>
      </trkpt>
      <trkpt lat="49.01239" lon="1.9824">
        <ele>140</ele>
        <time>2023-01-08T21:37:09Z</time>
      </trkpt>
      <trkpt lat="49.01262" lon="1.98228">
        <ele>139</ele>
        <time>2023-01-08T21:37:41Z</time>
      </trkpt>
      <trkpt lat="49.01286" lon="1.98197">
        <ele>136</ele>
        <time>2023-01-08T21:38:23Z</time>
      </trkpt>
      <trkpt lat="49.01292" lon="1.98176">
        <ele>134</ele>
        <time>2023-01-08T21:38:43Z</time>
      </trkpt>
      <trkpt lat="49.01296" lon="1.9818">
        <ele>135</ele>
        <time>2023-01-08T21:38:50Z</time>
      </trkpt>
      <trkpt lat="49.01295" lon="1.98187">
        <ele>136</ele>
        <time>2023-01-08T21:38:56Z</time>
      </trkpt>
      <trkpt lat="49.01299" lon="1.9818">
        <ele>135</ele>
        <time>2023-01-08T21:39:04Z</time>
      </trkpt>
      <trkpt lat="49.01308" lon="1.98176">
        <ele>135</ele>
        <time>2023-01-08T21:39:17Z</time>
      </trkpt>
      <trkpt lat="49.01333" lon="1.98143">
        <ele>134</ele>
        <time>2023-01-08T21:40:01Z</time>
      </trkpt>
      <trkpt lat="49.01345" lon="1.98137">
        <ele>136</ele>
        <time>2023-01-08T21:40:18Z</time>
      </trkpt>
      <trkpt lat="49.0136" lon="1.98113">
        <ele>137</ele>
        <time>2023-01-08T21:40:47Z</time>
      </trkpt>
      <trkpt lat="49.0138" lon="1.98111">
        <ele>139</ele>
        <time>2023-01-08T21:41:13Z</time>
      </trkpt>
      <trkpt lat="49.01417" lon="1.98085">
        <ele>140</ele>
        <time>2023-01-08T21:42:08Z</time>
      </trkpt>
      <trkpt lat="49.01436" lon="1.9807">
        <ele>140</ele>
        <time>2023-01-08T21:42:36Z</time>
      </trkpt>
      <trkpt lat="49.0144" lon="1.98059">
        <ele>139</ele>
        <time>2023-01-08T21:42:47Z</time>
      </trkpt>
      <trkpt lat="49.01462" lon="1.98033">
        <ele>137</ele>
        <time>2023-01-08T21:43:24Z</time>
      </trkpt>
      <trkpt lat="49.01487" lon="1.98025">
        <ele>137</ele>
        <time>2023-01-08T21:43:59Z</time>
      </trkpt>
      <trkpt lat="49.01501" lon="1.98027">
        <ele>137</ele>
        <time>2023-01-08T21:44:17Z</time>
      </trkpt>
      <trkpt lat="49.01507" lon="1.98019">
        <ele>136</ele>
        <time>2023-01-08T21:44:28Z</time>
      </trkpt>
      <trkpt lat="49.01534" lon="1.98002">
        <ele>135</ele>
        <time>2023-01-08T21:45:07Z</time>
      </trkpt>
      <trkpt lat="49.01549" lon="1.98014">
        <ele>136</ele>
        <time>2023-01-08T21:45:30Z</time>
      </trkpt>
      <trkpt lat="49.01558" lon="1.98012">
        <ele>136</ele>
        <time>2023-01-08T21:45:42Z</time>
      </trkpt>
      <trkpt lat="49.01564" lon="1.98015">
        <ele>136</ele>
        <time>2023-01-08T21:45:50Z</time>
      </trkpt>
      <trkpt lat="49.0161" lon="1.98056">
        <ele>141</ele>
        <time>2023-01-08T21:47:01Z</time>
      </trkpt>
      <trkpt lat="49.01666" lon="1.98121">
        <ele>146</ele>
        <time>2023-01-08T21:48:35Z</time>
      </trkpt>
      <trkpt lat="49.01671" lon="1.98137">
        <ele>148</ele>
        <time>2023-01-08T21:48:51Z</time>
      </trkpt>
      <trkpt lat="49.01691" lon="1.98149">
        <ele>154</ele>
        <time>2023-01-08T21:49:19Z</time>
      </trkpt>
      <trkpt lat="49.01699" lon="1.98169">
        <ele>157</ele>
        <time>2023-01-08T21:49:40Z</time>
      </trkpt>
      <trkpt lat="49.0171" lon="1.98174">
        <ele>160</ele>
        <time>2023-01-08T21:49:55Z</time>
      </trkpt>
      <trkpt lat="49.01732" lon="1.98198">
        <ele>166</ele>
        <time>2023-01-08T21:50:31Z</time>
      </trkpt>
      <trkpt lat="49.01734" lon="1.98211">
        <ele>168</ele>
        <time>2023-01-08T21:50:43Z</time>
      </trkpt>
      <trkpt lat="49.01733" lon="1.98206">
        <ele>167</ele>
        <time>2023-01-08T21:50:48Z</time>
      </trkpt>
      <trkpt lat="49.01736" lon="1.98208">
        <ele>168</ele>
        <time>2023-01-08T21:50:52Z</time>
      </trkpt>
      <trkpt lat="49.0174" lon="1.98201">
        <ele>168</ele>
        <time>2023-01-08T21:51:00Z</time>
      </trkpt>
      <trkpt lat="49.01744" lon="1.98204">
        <ele>169</ele>
        <time>2023-01-08T21:51:06Z</time>
      </trkpt>
      <trkpt lat="49.01745" lon="1.98207">
        <ele>170</ele>
        <time>2023-01-08T21:51:09Z</time>
      </trkpt>
      <trkpt lat="49.01741" lon="1.98208">
        <ele>169</ele>
        <time>2023-01-08T21:51:14Z</time>
      </trkpt>
      <trkpt lat="49.01745" lon="1.98213">
        <ele>170</ele>
        <time>2023-01-08T21:51:21Z</time>
      </trkpt>
      <trkpt lat="49.01759" lon="1.98223">
        <ele>173</ele>
        <time>2023-01-08T21:51:42Z</time>
      </trkpt>
      <trkpt lat="49.018" lon="1.98231">
        <ele>178</ele>
        <time>2023-01-08T21:52:37Z</time>
      </trkpt>
      <trkpt lat="49.01819" lon="1.98255">
        <ele>180</ele>
        <time>2023-01-08T21:53:10Z</time>
      </trkpt>
      <trkpt lat="49.01834" lon="1.98259">
        <ele>181</ele>
        <time>2023-01-08T21:53:30Z</time>
      </trkpt>
      <trkpt lat="49.01843" lon="1.98269">
        <ele>182</ele>
        <time>2023-01-08T21:53:45Z</time>
      </trkpt>
      <trkpt lat="49.01863" lon="1.98276">
        <ele>183</ele>
        <time>2023-01-08T21:54:13Z</time>
      </trkpt>
      <trkpt lat="49.01888" lon="1.98296">
        <ele>185</ele>
        <time>2023-01-08T21:54:50Z</time>
      </trkpt>
      <trkpt lat="49.0191" lon="1.98302">
        <ele>186</ele>
        <time>2023-01-08T21:55:20Z</time>
      </trkpt>
      <trkpt lat="49.0192" lon="1.98266">
        <ele>186</ele>
        <time>2023-01-08T21:55:54Z</time>
      </trkpt>
      <trkpt lat="49.01913" lon="1.98222">
        <ele>185</ele>
        <time>2023-01-08T21:56:34Z</time>
      </trkpt>
      <trkpt lat="49.01913" lon="1.98182">
        <ele>185</ele>
        <time>2023-01-08T21:57:09Z</time>
      </trkpt>
      <trkpt lat="49.01897" lon="1.9809">
        <ele>181</ele>
        <time>2023-01-08T21:58:32Z</time>
      </trkpt>
      <trkpt lat="49.01894" lon="1.9808">
        <ele>181</ele>
        <time>2023-01-08T21:58:42Z</time>
      </trkpt>
      <trkpt lat="49.01889" lon="1.98077">
        <ele>180</ele>
        <time>2023-01-08T21:58:49Z</time>
      </trkpt>
      <trkpt lat="49.01898" lon="1.98077">
        <ele>181</ele>
        <time>2023-01-08T21:59:01Z</time>
      </trkpt>
      <trkpt lat="49.01896" lon="1.98072">
        <ele>181</ele>
        <time>2023-01-08T21:59:06Z</time>
      </trkpt>
      <trkpt lat="49.01891" lon="1.98082">
        <ele>180</ele>
        <time>2023-01-08T21:59:17Z</time>
      </trkpt>
      <trkpt lat="49.01901" lon="1.98051">
        <ele>181</ele>
        <time>2023-01-08T21:59:47Z</time>
      </trkpt>
      <trkpt lat="49.01914" lon="1.98051">
        <ele>181</ele>
        <time>2023-01-08T22:00:05Z</time>
      </trkpt>
      <trkpt lat="49.01924" lon="1.98063">
        <ele>181</ele>
        <time>2023-01-08T22:00:22Z</time>
      </trkpt>
      <trkpt lat="49.01931" lon="1.98055">
        <ele>181</ele>
        <time>2023-01-08T22:00:33Z</time>
      </trkpt>
      <trkpt lat="49.01938" lon="1.98013">
        <ele>179</ele>
        <time>2023-01-08T22:01:11Z</time>
      </trkpt>
      <trkpt lat="49.0194" lon="1.97963">
        <ele>179</ele>
        <time>2023-01-08T22:01:55Z</time>
      </trkpt>
      <trkpt lat="49.01947" lon="1.97949">
        <ele>178</ele>
        <time>2023-01-08T22:02:10Z</time>
      </trkpt>
      <trkpt lat="49.0194" lon="1.97892">
        <ele>179</ele>
        <time>2023-01-08T22:03:01Z</time>
      </trkpt>
      <trkpt lat="49.01937" lon="1.9782">
        <ele>180</ele>
        <time>2023-01-08T22:04:04Z</time>
      </trkpt>
      <trkpt lat="49.01953" lon="1.9777">
        <ele>179</ele>
        <time>2023-01-08T22:04:53Z</time>
      </trkpt>
      <trkpt lat="49.01954" lon="1.97731">
        <ele>179</ele>
        <time>2023-01-08T22:05:27Z</time>
      </trkpt>
      <trkpt lat="49.01962" lon="1.97693">
        <ele>179</ele>
        <time>2023-01-08T22:06:02Z</time>
      </trkpt>
      <trkpt lat="49.01979" lon="1.9766">
        <ele>180</ele>
        <time>2023-01-08T22:06:39Z</time>
      </trkpt>
      <trkpt lat="49.01991" lon="1.97618">
        <ele>180</ele>
        <time>2023-01-08T22:07:19Z</time>
      </trkpt>
      <trkpt lat="49.01974" lon="1.97518">
        <ele>180</ele>
        <time>2023-01-08T22:08:49Z</time>
      </trkpt>
      <trkpt lat="49.01972" lon="1.97453">
        <ele>180</ele>
        <time>2023-01-08T22:09:46Z</time>
      </trkpt>
      <trkpt lat="49.0198" lon="1.9739">
        <ele>180</ele>
        <time>2023-01-08T22:10:42Z</time>
      </trkpt>
      <trkpt lat="49.01998" lon="1.97359">
        <ele>180</ele>
        <time>2023-01-08T22:11:19Z</time>
      </trkpt>
      <trkpt lat="49.02011" lon="1.9735">
        <ele>179</ele>
        <time>2023-01-08T22:11:38Z</time>
      </trkpt>
      <trkpt lat="49.0203" lon="1.97315">
        <ele>179</ele>
        <time>2023-01-08T22:12:18Z</time>
      </trkpt>
      <trkpt lat="49.02053" lon="1.97304">
        <ele>178</ele>
        <time>2023-01-08T22:12:50Z</time>
      </trkpt>
      <trkpt lat="49.02065" lon="1.97282">
        <ele>177</ele>
        <time>2023-01-08T22:13:15Z</time>
      </trkpt>
      <trkpt lat="49.02083" lon="1.97269">
        <ele>177</ele>
        <time>2023-01-08T22:13:41Z</time>
      </trkpt>
      <trkpt lat="49.02097" lon="1.97228">
        <ele>177</ele>
        <time>2023-01-08T22:14:22Z</time>
      </trkpt>
      <trkpt lat="49.02098" lon="1.97163">
        <ele>179</ele>
        <time>2023-01-08T22:15:19Z</time>
      </trkpt>
      <trkpt lat="49.0211" lon="1.97118">
        <ele>180</ele>
        <time>2023-01-08T22:16:01Z</time>
      </trkpt>
      <trkpt lat="49.02119" lon="1.97052">
        <ele>182</ele>
        <time>2023-01-08T22:17:00Z</time>
      </trkpt>
      <trkpt lat="49.02147" lon="1.96968">
        <ele>181</ele>
        <time>2023-01-08T22:18:23Z</time>
      </trkpt>
      <trkpt lat="49.02182" lon="1.9689">
        <ele>178</ele>
        <time>2023-01-08T22:19:45Z</time>
      </trkpt>
      <trkpt lat="49.02201" lon="1.9683">
        <ele>177</ele>
        <time>2023-01-08T22:20:44Z</time>
      </trkpt>
      <trkpt lat="49.02232" lon="1.96759">
        <ele>179</ele>
        <time>2023-01-08T22:21:58Z</time>
      </trkpt>
      <trkpt lat="49.02244" lon="1.96717">
        <ele>180</ele>
        <time>2023-01-08T22:22:38Z</time>
      </trkpt>
      <trkpt lat="49.02278" lon="1.96664">
        <ele>178</ele>
        <time>2023-01-08T22:23:43Z</time>
      </trkpt>
      <trkpt lat="49.02303" lon="1.96648">
        <ele>177</ele>
        <time>2023-01-08T22:24:19Z</time>
      </trkpt>
      <trkpt lat="49.02322" lon="1.96618">
        <ele>178</ele>
        <time>2023-01-08T22:24:56Z</time>
      </trkpt>
      <trkpt lat="49.0236" lon="1.96585">
        <ele>172</ele>
        <time>2023-01-08T22:25:54Z</time>
      </trkpt>
      <trkpt lat="49.02379" lon="1.96562">
        <ele>168</ele>
        <time>2023-01-08T22:26:27Z</time>
      </trkpt>
      <trkpt lat="49.02408" lon="1.96556">
        <ele>162</ele>
        <time>2023-01-08T22:27:06Z</time>
      </trkpt>
      <trkpt lat="49.02412" lon="1.96567">
        <ele>160</ele>
        <time>2023-01-08T22:27:17Z</time>
      </trkpt>
      <trkpt lat="49.02424" lon="1.96562">
        <ele>158</ele>
        <time>2023-01-08T22:27:33Z</time>
      </trkpt>
      <trkpt lat="49.02418" lon="1.96558">
        <ele>160</ele>
        <time>2023-01-08T22:27:42Z</time>
      </trkpt>
      <trkpt lat="49.02418" lon="1.96563">
        <ele>159</ele>
        <time>2023-01-08T22:27:46Z</time>
      </trkpt>
      <trkpt lat="49.02417" lon="1.96557">
        <ele>160</ele>
        <time>2023-01-08T22:27:52Z</time>
      </trkpt>
      <trkpt lat="49.02422" lon="1.96566">
        <ele>158</ele>
        <time>2023-01-08T22:28:02Z</time>
      </trkpt>
      <trkpt lat="49.02413" lon="1.96541">
        <ele>162</ele>
        <time>2023-01-08T22:28:27Z</time>
      </trkpt>
      <trkpt lat="49.02417" lon="1.96536">
        <ele>162</ele>
        <time>2023-01-08T22:28:34Z</time>
      </trkpt>
      <trkpt lat="49.02436" lon="1.96525">
        <ele>159</ele>
        <time>2023-01-08T22:29:01Z</time>
      </trkpt>
      <trkpt lat="49.0245" lon="1.96505">
        <ele>158</ele>
        <time>2023-01-08T22:29:27Z</time>
      </trkpt>
      <trkpt lat="49.02475" lon="1.96491">
        <ele>154</ele>
        <time>2023-01-08T22:30:02Z</time>
      </trkpt>
      <trkpt lat="49.02497" lon="1.96472">
        <ele>150</ele>
        <time>2023-01-08T22:30:36Z</time>
      </trkpt>
      <trkpt lat="49.02518" lon="1.96443">
        <ele>149</ele>
        <time>2023-01-08T22:31:14Z</time>
      </trkpt>
      <trkpt lat="49.02541" lon="1.96428">
        <ele>148</ele>
        <time>2023-01-08T22:31:47Z</time>
      </trkpt>
      <trkpt lat="49.02545" lon="1.96421">
        <ele>148</ele>
        <time>2023-01-08T22:31:55Z</time>
      </trkpt>
      <trkpt lat="49.02511" lon="1.96376">
        <ele>149</ele>
        <time>2023-01-08T22:32:55Z</time>
      </trkpt>
      <trkpt lat="49.0245" lon="1.9632">
        <ele>154</ele>
        <time>2023-01-08T22:34:30Z</time>
      </trkpt>
      <trkpt lat="49.02436" lon="1.96291">
        <ele>154</ele>
        <time>2023-01-08T22:35:02Z</time>
      </trkpt>
      <trkpt lat="49.0243" lon="1.96259">
        <ele>154</ele>
        <time>2023-01-08T22:35:31Z</time>
      </trkpt>
      <trkpt lat="49.02422" lon="1.96253">
        <ele>154</ele>
        <time>2023-01-08T22:35:43Z</time>
      </trkpt>
      <trkpt lat="49.02388" lon="1.96197">
        <ele>152</ele>
        <time>2023-01-08T22:36:50Z</time>
      </trkpt>
      <trkpt lat="49.0237" lon="1.96178">
        <ele>151</ele>
        <time>2023-01-08T22:37:19Z</time>
      </trkpt>
      <trkpt lat="49.02356" lon="1.96173">
        <ele>150</ele>
        <time>2023-01-08T22:37:38Z</time>
      </trkpt>
      <trkpt lat="49.02343" lon="1.96159">
        <ele>149</ele>
        <time>2023-01-08T22:37:59Z</time>
      </trkpt>
      <trkpt lat="49.0233" lon="1.96155">
        <ele>148</ele>
        <time>2023-01-08T22:38:17Z</time>
      </trkpt>
      <trkpt lat="49.02322" lon="1.96144">
        <ele>148</ele>
        <time>2023-01-08T22:38:31Z</time>
      </trkpt>
      <trkpt lat="49.02309" lon="1.96095">
        <ele>146</ele>
        <time>2023-01-08T22:39:18Z</time>
      </trkpt>
      <trkpt lat="49.02312" lon="1.9603">
        <ele>144</ele>
        <time>2023-01-08T22:40:15Z</time>
      </trkpt>
      <trkpt lat="49.02305" lon="1.96013">
        <ele>145</ele>
        <time>2023-01-08T22:40:32Z</time>
      </trkpt>
      <trkpt lat="49.02265" lon="1.95951">
        <ele>148</ele>
        <time>2023-01-08T22:41:48Z</time>
      </trkpt>
      <trkpt lat="49.02207" lon="1.95891">
        <ele>152</ele>
        <time>2023-01-08T22:43:22Z</time>
      </trkpt>
      <trkpt lat="49.02185" lon="1.95878">
        <ele>154</ele>
        <time>2023-01-08T22:43:53Z</time>
      </trkpt>
      <trkpt lat="49.02175" lon="1.95867">
        <ele>154</ele>
        <time>2023-01-08T22:44:10Z</time>
      </trkpt>
      <trkpt lat="49.02132" lon="1.95852">
        <ele>156</ele>
        <time>2023-01-08T22:45:09Z</time>
      </trkpt>
      <trkpt lat="49.021" lon="1.95831">
        <ele>157</ele>
        <time>2023-01-08T22:45:55Z</time>
      </trkpt>
      <trkpt lat="49.02082" lon="1.95828">
        <ele>158</ele>
        <time>2023-01-08T22:46:19Z</time>
      </trkpt>
      <trkpt lat="49.02078" lon="1.95821">
        <ele>158</ele>
        <time>2023-01-08T22:46:28Z</time>
      </trkpt>
      <trkpt lat="49.0212" lon="1.95773">
        <ele>152</ele>
        <time>2023-01-08T22:47:38Z</time>
      </trkpt>
      <trkpt lat="49.02155" lon="1.95714">
        <ele>146</ele>
        <time>2023-01-08T22:48:47Z</time>
      </trkpt>
      <trkpt lat="49.02173" lon="1.95693">
        <ele>143</ele>
        <time>2023-01-08T22:49:17Z</time>
      </trkpt>
      <trkpt lat="49.0218" lon="1.95676">
        <ele>142</ele>
        <time>2023-01-08T22:49:35Z</time>
      </trkpt>
      <trkpt lat="49.02182" lon="1.95678">
        <ele>142</ele>
        <time>2023-01-08T22:49:38Z</time>
      </trkpt>
      <trkpt lat="49.02178" lon="1.95649">
        <ele>142</ele>
        <time>2023-01-08T22:50:04Z</time>
      </trkpt>
      <trkpt lat="49.0216" lon="1.95633">
        <ele>144</ele>
        <time>2023-01-08T22:50:32Z</time>
      </trkpt>
      <trkpt lat="49.02151" lon="1.95582">
        <ele>144</ele>
        <time>2023-01-08T22:51:18Z</time>
      </trkpt>
      <trkpt lat="49.02151" lon="1.95548">
        <ele>142</ele>
        <time>2023-01-08T22:51:48Z</time>
      </trkpt>
      <trkpt lat="49.02165" lon="1.95539">
        <ele>140</ele>
        <time>2023-01-08T22:52:08Z</time>
      </trkpt>
      <trkpt lat="49.02171" lon="1.95522">
        <ele>139</ele>
        <time>2023-01-08T22:52:25Z</time>
      </trkpt>
      <trkpt lat="49.02154" lon="1.9548">
        <ele>139</ele>
        <time>2023-01-08T22:53:08Z</time>
      </trkpt>
      <trkpt lat="49.02154" lon="1.95449">
        <ele>138</ele>
        <time>2023-01-08T22:53:35Z</time>
      </trkpt>
      <trkpt lat="49.02148" lon="1.95425">
        <ele>137</ele>
        <time>2023-01-08T22:53:58Z</time>
      </trkpt>
      <trkpt lat="49.02149" lon="1.9539">
        <ele>137</ele>
        <time>2023-01-08T22:54:29Z</time>
      </trkpt>
      <trkpt lat="49.02139" lon="1.95336">
        <ele>137</ele>
        <time>2023-01-08T22:55:18Z</time>
      </trkpt>
      <trkpt lat="49.02103" lon="1.95261">
        <ele>139</ele>
        <time>2023-01-08T22:56:39Z</time>
      </trkpt>
      <trkpt lat="49.02095" lon="1.95216">
        <ele>142</ele>
        <time>2023-01-08T22:57:20Z</time>
      </trkpt>
      <trkpt lat="49.02072" lon="1.9515">
        <ele>150</ele>
        <time>2023-01-08T22:58:25Z</time>
      </trkpt>
      <trkpt lat="49.02052" lon="1.95111">
        <ele>155</ele>
        <time>2023-01-08T22:59:09Z</time>
      </trkpt>
      <trkpt lat="49.02048" lon="1.95087">
        <ele>157</ele>
        <time>2023-01-08T22:59:30Z</time>
      </trkpt>
      <trkpt lat="49.02037" lon="1.95067">
        <ele>160</ele>
        <time>2023-01-08T22:59:53Z</time>
      </trkpt>
      <trkpt lat="49.02009" lon="1.94903">
        <ele>163</ele>
        <time>2023-01-08T23:02:21Z</time>
      </trkpt>
      <trkpt lat="49.02" lon="1.94879">
        <ele>164</ele>
        <time>2023-01-08T23:02:46Z</time>
      </trkpt>
      <trkpt lat="49.01977" lon="1.94861">
        <ele>165</ele>
        <time>2023-01-08T23:03:20Z</time>
      </trkpt>
      <trkpt lat="49.01952" lon="1.94848">
        <ele>167</ele>
        <time>2023-01-08T23:03:55Z</time>
      </trkpt>
      <trkpt lat="49.01927" lon="1.94825">
        <ele>170</ele>
        <time>2023-01-08T23:04:34Z</time>
      </trkpt>
      <trkpt lat="49.01901" lon="1.94779">
        <ele>171</ele>
        <time>2023-01-08T23:05:27Z</time>
      </trkpt>
      <trkpt lat="49.01887" lon="1.94776">
        <ele>170</ele>
        <time>2023-01-08T23:05:46Z</time>
      </trkpt>
      <trkpt lat="49.01855" lon="1.94753">
        <ele>170</ele>
        <time>2023-01-08T23:06:33Z</time>
      </trkpt>
      <trkpt lat="49.01798" lon="1.94739">
        <ele>166</ele>
        <time>2023-01-08T23:07:50Z</time>
      </trkpt>
      <trkpt lat="49.01765" lon="1.94726">
        <ele>163</ele>
        <time>2023-01-08T23:08:36Z</time>
      </trkpt>
      <trkpt lat="49.01756" lon="1.94718">
        <ele>163</ele>
        <time>2023-01-08T23:08:50Z</time>
      </trkpt>
      <trkpt lat="49.01757" lon="1.94663">
        <ele>166</ele>
        <time>2023-01-08T23:09:38Z</time>
      </trkpt>
      <trkpt lat="49.01751" lon="1.94622">
        <ele>166</ele>
        <time>2023-01-08T23:10:15Z</time>
      </trkpt>
      <trkpt lat="49.01752" lon="1.94554">
        <ele>168</ele>
        <time>2023-01-08T23:11:14Z</time>
      </trkpt>
      <trkpt lat="49.01748" lon="1.9451">
        <ele>167</ele>
        <time>2023-01-08T23:11:53Z</time>
      </trkpt>
      <trkpt lat="49.01761" lon="1.94484">
        <ele>169</ele>
        <time>2023-01-08T23:12:22Z</time>
      </trkpt>
      <trkpt lat="49.01768" lon="1.94453">
        <ele>171</ele>
        <time>2023-01-08T23:12:51Z</time>
      </trkpt>
      <trkpt lat="49.01781" lon="1.94435">
        <ele>172</ele>
        <time>2023-01-08T23:13:14Z</time>
      </trkpt>
      <trkpt lat="49.01784" lon="1.94415">
        <ele>172</ele>
        <time>2023-01-08T23:13:32Z</time>
      </trkpt>
      <trkpt lat="49.01781" lon="1.94406">
        <ele>172</ele>
        <time>2023-01-08T23:13:41Z</time>
      </trkpt>
      <trkpt lat="49.01776" lon="1.94404">
        <ele>172</ele>
        <time>2023-01-08T23:13:48Z</time>
      </trkpt>
      <trkpt lat="49.01723" lon="1.9443">
        <ele>165</ele>
        <time>2023-01-08T23:15:02Z</time>
      </trkpt>
      <trkpt lat="49.0169" lon="1.94438">
        <ele>159</ele>
        <time>2023-01-08T23:15:47Z</time>
      </trkpt>
      <trkpt lat="49.01623" lon="1.94467">
        <ele>149</ele>
        <time>2023-01-08T23:17:19Z</time>
      </trkpt>
      <trkpt lat="49.016" lon="1.94467">
        <ele>147</ele>
        <time>2023-01-08T23:17:50Z</time>
      </trkpt>
      <trkpt lat="49.01589" lon="1.94459">
        <ele>146</ele>
        <time>2023-01-08T23:18:06Z</time>
      </trkpt>
      <trkpt lat="49.01564" lon="1.9446">
        <ele>144</ele>
        <time>2023-01-08T23:18:40Z</time>
      </trkpt>
      <trkpt lat="49.01499" lon="1.94477">
        <ele>138</ele>
        <time>2023-01-08T23:20:08Z</time>
      </trkpt>
      <trkpt lat="49.01471" lon="1.94489">
        <ele>136</ele>
        <time>2023-01-08T23:20:47Z</time>
      </trkpt>
      <trkpt lat="49.01467" lon="1.94483">
        <ele>137</ele>
        <time>2023-01-08T23:20:54Z</time>
      </trkpt>
      <trkpt lat="49.01472" lon="1.94434">
        <ele>139</ele>
        <time>2023-01-08T23:21:38Z</time>
      </trkpt>
      <trkpt lat="49.01469" lon="1.94422">
        <ele>139</ele>
        <time>2023-01-08T23:21:49Z</time>
      </trkpt>
      <trkpt lat="49.01462" lon="1.9442">
        <ele>139</ele>
        <time>2023-01-08T23:21:58Z</time>
      </trkpt>
      <trkpt lat="49.01436" lon="1.94425">
        <ele>138</ele>
        <time>2023-01-08T23:22:33Z</time>
      </trkpt>
      <trkpt lat="49.0142" lon="1.94435">
        <ele>136</ele>
        <time>2023-01-08T23:22:56Z</time>
      </trkpt>
      <trkpt lat="49.0141" lon="1.94434">
        <ele>136</ele>
        <time>2023-01-08T23:23:10Z</time>
      </trkpt>
      <trkpt lat="49.01405" lon="1.94444">
        <ele>135</ele>
        <time>2023-01-08T23:23:21Z</time>
      </trkpt>
      <trkpt lat="49.01395" lon="1.94448">
        <ele>134</ele>
        <time>2023-01-08T23:23:34Z</time>
      </trkpt>
      <trkpt lat="49.01382" lon="1.94451">
        <ele>134</ele>
        <time>2023-01-08T23:23:52Z</time>
      </trkpt>
      <trkpt lat="49.01378" lon="1.94446">
        <ele>133</ele>
        <time>2023-01-08T23:23:59Z</time>
      </trkpt>
      <trkpt lat="49.01379" lon="1.94375">
        <ele>132</ele>
        <time>2023-01-08T23:25:01Z</time>
      </trkpt>
      <trkpt lat="49.01392" lon="1.9432">
        <ele>129</ele>
        <time>2023-01-08T23:25:52Z</time>
      </trkpt>
      <trkpt lat="49.01417" lon="1.94256">
        <ele>125</ele>
        <time>2023-01-08T23:26:57Z</time>
      </trkpt>
      <trkpt lat="49.0142" lon="1.94222">
        <ele>126</ele>
        <time>2023-01-08T23:27:27Z</time>
      </trkpt>
      <trkpt lat="49.01431" lon="1.94183">
        <ele>128</ele>
        <time>2023-01-08T23:28:05Z</time>
      </trkpt>
      <trkpt lat="49.01446" lon="1.94157">
        <ele>131</ele>
        <time>2023-01-08T23:28:35Z</time>
      </trkpt>
      <trkpt lat="49.01458" lon="1.94108">
        <ele>134</ele>
        <time>2023-01-08T23:29:21Z</time>
      </trkpt>
      <trkpt lat="49.01459" lon="1.94085">
        <ele>135</ele>
        <time>2023-01-08T23:29:41Z</time>
      </trkpt>
      <trkpt lat="49.01488" lon="1.94032">
        <ele>139</ele>
        <time>2023-01-08T23:30:41Z</time>
      </trkpt>
      <trkpt lat="49.01515" lon="1.93957">
        <ele>143</ele>
        <time>2023-01-08T23:31:56Z</time>
      </trkpt>
      <trkpt lat="49.01518" lon="1.93934">
        <ele>144</ele>
        <time>2023-01-08T23:32:17Z</time>
      </trkpt>
      <trkpt lat="49.01513" lon="1.93901">
        <ele>143</ele>
        <time>2023-01-08T23:32:46Z</time>
      </trkpt>
      <trkpt lat="49.01507" lon="1.93884">
        <ele>142</ele>
        <time>2023-01-08T23:33:03Z</time>
      </trkpt>
      <trkpt lat="49.01473" lon="1.93908">
        <ele>142</ele>
        <time>2023-01-08T23:33:53Z</time>
      </trkpt>
      <trkpt lat="49.01456" lon="1.93914">
        <ele>142</ele>
        <time>2023-01-08T23:34:17Z</time>
      </trkpt>
      <trkpt lat="49.0142" lon="1.93957">
        <ele>142</ele>
        <time>2023-01-08T23:35:18Z</time>
      </trkpt>
      <trkpt lat="49.01391" lon="1.93981">
        <ele>140</ele>
        <time>2023-01-08T23:36:02Z</time>
      </trkpt>
      <trkpt lat="49.01385" lon="1.93984">
        <ele>139</ele>
        <time>2023-01-08T23:36:10Z</time>
      </trkpt>
      <trkpt lat="49.01382" lon="1.93981">
        <ele>139</ele>
        <time>2023-01-08T23:36:15Z</time>
      </trkpt>
      <trkpt lat="49.01375" lon="1.93958">
        <ele>139</ele>
        <time>2023-01-08T23:36:37Z</time>
      </trkpt>
      <trkpt lat="49.0137" lon="1.93917">
        <ele>140</ele>
        <time>2023-01-08T23:37:13Z</time>
      </trkpt>
      <trkpt lat="49.01349" lon="1.93855">
        <ele>139</ele>
        <time>2023-01-08T23:38:15Z</time>
      </trkpt>
      <trkpt lat="49.01337" lon="1.93772">
        <ele>138</ele>
        <time>2023-01-08T23:39:29Z</time>
      </trkpt>
      <trkpt lat="49.0131" lon="1.93676">
        <ele>130</ele>
        <time>2023-01-08T23:41:00Z</time>
      </trkpt>
      <trkpt lat="49.01306" lon="1.93621">
        <ele>128</ele>
        <time>2023-01-08T23:41:49Z</time>
      </trkpt>
      <trkpt lat="49.01291" lon="1.93516">
        <ele>125</ele>
        <time>2023-01-08T23:43:23Z</time>
      </trkpt>
      <trkpt lat="49.01276" lon="1.93444">
        <ele>123</ele>
        <time>2023-01-08T23:44:29Z</time>
      </trkpt>
      <trkpt lat="49.01268" lon="1.93364">
        <ele>122</ele>
        <time>2023-01-08T23:45:40Z</time>
      </trkpt>
      <trkpt lat="49.01241" lon="1.9326">
        <ele>118</ele>
        <time>2023-01-08T23:47:18Z</time>
      </trkpt>
      <trkpt lat="49.0123" lon="1.93142">
        <ele>116</ele>
        <time>2023-01-08T23:49:02Z</time>
      </trkpt>
      <trkpt lat="49.01224" lon="1.93134">
        <ele>115</ele>
        <time>2023-01-08T23:49:13Z</time>
      </trkpt>
      <trkpt lat="49.01193" lon="1.93144">
        <ele>112</ele>
        <time>2023-01-08T23:49:55Z</time>
      </trkpt>
      <trkpt lat="49.01173" lon="1.93145">
        <ele>110</ele>
        <time>2023-01-08T23:50:22Z</time>
      </trkpt>
      <trkpt lat="49.01168" lon="1.93141">
        <ele>109</ele>
        <time>2023-01-08T23:50:29Z</time>
      </trkpt>
      <trkpt lat="49.01152" lon="1.93056">
        <ele>106</ele>
        <time>2023-01-08T23:51:47Z</time>
      </trkpt>
      <trkpt lat="49.01121" lon="1.92932">
        <ele>102</ele>
        <time>2023-01-08T23:53:43Z</time>
      </trkpt>
      <trkpt lat="49.01122" lon="1.92881">
        <ele>103</ele>
        <time>2023-01-08T23:54:27Z</time>
      </trkpt>
      <trkpt lat="49.01109" lon="1.92868">
        <ele>101</ele>
        <time>2023-01-08T23:54:48Z</time>
      </trkpt>
      <trkpt lat="49.01094" lon="1.92841">
        <ele>100</ele>
        <time>2023-01-08T23:55:19Z</time>
      </trkpt>
      <trkpt lat="49.01082" lon="1.92738">
        <ele>105</ele>
        <time>2023-01-08T23:56:51Z</time>
      </trkpt>
      <trkpt lat="49.0105" lon="1.92632">
        <ele>101</ele>
        <time>2023-01-08T23:58:33Z</time>
      </trkpt>
      <trkpt lat="49.01041" lon="1.92581">
        <ele>101</ele>
        <time>2023-01-08T23:59:19Z</time>
      </trkpt>
      <trkpt lat="49.01025" lon="1.92546">
        <ele>100</ele>
        <time>2023-01-08T23:59:56Z</time>
      </trkpt>
      <trkpt lat="49.01024" lon="1.92516">
        <ele>102</ele>
        <time>2023-01-09T00:00:23Z</time>
      </trkpt>
      <trkpt lat="49.01011" lon="1.92468">
        <ele>104</ele>
        <time>2023-01-09T00:01:08Z</time>
      </trkpt>
      <trkpt lat="49.01009" lon="1.92446">
        <ele>105</ele>
        <time>2023-01-09T00:01:28Z</time>
      </trkpt>
      <trkpt lat="49.01002" lon="1.92437">
        <ele>105</ele>
        <time>2023-01-09T00:01:40Z</time>
      </trkpt>
      <trkpt lat="49.00995" lon="1.92412">
        <ele>105</ele>
        <time>2023-01-09T00:02:04Z</time>
      </trkpt>
      <trkpt lat="49.00978" lon="1.92279">
        <ele>104</ele>
        <time>2023-01-09T00:04:02Z</time>
      </trkpt>
      <trkpt lat="49.00981" lon="1.92206">
        <ele>106</ele>
        <time>2023-01-09T00:05:06Z</time>
      </trkpt>
      <trkpt lat="49.00974" lon="1.92171">
        <ele>104</ele>
        <time>2023-01-09T00:05:38Z</time>
      </trkpt>
      <trkpt lat="49.00974" lon="1.92145">
        <ele>104</ele>
        <time>2023-01-09T00:06:01Z</time>
      </trkpt>
      <trkpt lat="49.00962" lon="1.92115">
        <ele>102</ele>
        <time>2023-01-09T00:06:32Z</time>
      </trkpt>
      <trkpt lat="49.00961" lon="1.92098">
        <ele>102</ele>
        <time>2023-01-09T00:06:47Z</time>
      </trkpt>
      <trkpt lat="49.00948" lon="1.92049">
        <ele>100</ele>
        <time>2023-01-09T00:07:33Z</time>
      </trkpt>
      <trkpt lat="49.00952" lon="1.92017">
        <ele>101</ele>
        <time>2023-01-09T00:08:01Z</time>
      </trkpt>
      <trkpt lat="49.00946" lon="1.91961">
        <ele>100</ele>
        <time>2023-01-09T00:08:51Z</time>
      </trkpt>
      <trkpt lat="49.00922" lon="1.91903">
        <ele>99</ele>
        <time>2023-01-09T00:09:51Z</time>
      </trkpt>
      <trkpt lat="49.00921" lon="1.91867">
        <ele>99</ele>
        <time>2023-01-09T00:10:23Z</time>
      </trkpt>
      <trkpt lat="49.00937" lon="1.91841">
        <ele>101</ele>
        <time>2023-01-09T00:10:54Z</time>
      </trkpt>
      <trkpt lat="49.00944" lon="1.91798">
        <ele>101</ele>
        <time>2023-01-09T00:11:33Z</time>
      </trkpt>
      <trkpt lat="49.00941" lon="1.91791">
        <ele>101</ele>
        <time>2023-01-09T00:11:40Z</time>
      </trkpt>
      <trkpt lat="49.00926" lon="1.91782">
        <ele>100</ele>
        <time>2023-01-09T00:12:02Z</time>
      </trkpt>
      <trkpt lat="49.00902" lon="1.91759">
        <ele>97</ele>
        <time>2023-01-09T00:12:39Z</time>
      </trkpt>
      <trkpt lat="49.00896" lon="1.91742">
        <ele>96</ele>
        <time>2023-01-09T00:12:56Z</time>
      </trkpt>
      <trkpt lat="49.00896" lon="1.91696">
        <ele>97</ele>
        <time>2023-01-09T00:13:37Z</time>
      </trkpt>
      <trkpt lat="49.00886" lon="1.916">
        <ele>94</ele>
        <time>2023-01-09T00:15:02Z</time>
      </trkpt>
      <trkpt lat="49.00876" lon="1.91567">
        <ele>92</ele>
        <time>2023-01-09T00:15:33Z</time>
      </trkpt>
      <trkpt lat="49.00867" lon="1.91493">
        <ele>92</ele>
        <time>2023-01-09T00:16:39Z</time>
      </trkpt>
      <trkpt lat="49.00839" lon="1.91352">
        <ele>93</ele>
        <time>2023-01-09T00:18:48Z</time>
      </trkpt>
      <trkpt lat="49.00843" lon="1.91336">
        <ele>93</ele>
        <time>2023-01-09T00:19:03Z</time>
      </trkpt>
      <trkpt lat="49.00834" lon="1.91306">
        <ele>94</ele>
        <time>2023-01-09T00:19:32Z</time>
      </trkpt>
      <trkpt lat="49.00844" lon="1.91257">
        <ele>95</ele>
        <time>2023-01-09T00:20:17Z</time>
      </trkpt>
      <trkpt lat="49.00846" lon="1.91134">
        <ele>90</ele>
        <time>2023-01-09T00:22:05Z</time>
      </trkpt>
      <trkpt lat="49.00839" lon="1.91118">
        <ele>89</ele>
        <time>2023-01-09T00:22:22Z</time>
      </trkpt>
      <trkpt lat="49.00836" lon="1.91096">
        <ele>88</ele>
        <time>2023-01-09T00:22:41Z</time>
      </trkpt>
      <trkpt lat="49.00804" lon="1.91024">
        <ele>77</ele>
        <time>2023-01-09T00:23:57Z</time>
      </trkpt>
      <trkpt lat="49.00805" lon="1.91005">
        <ele>75</ele>
        <time>2023-01-09T00:24:14Z</time>
      </trkpt>
      <trkpt lat="49.0081" lon="1.90996">
        <ele>73</ele>
        <time>2023-01-09T00:24:24Z</time>
      </trkpt>
      <trkpt lat="49.00821" lon="1.9099">
        <ele>72</ele>
        <time>2023-01-09T00:24:40Z</time>
      </trkpt>
      <trkpt lat="49.00826" lon="1.90992">
        <ele>72</ele>
        <time>2023-01-09T00:24:47Z</time>
      </trkpt>
      <trkpt lat="49.00828" lon="1.90985">
        <ele>72</ele>
        <time>2023-01-09T00:24:54Z</time>
      </trkpt>
      <trkpt lat="49.00814" lon="1.90959">
        <ele>69</ele>
        <time>2023-01-09T00:25:23Z</time>
      </trkpt>
      <trkpt lat="49.00801" lon="1.90955">
        <ele>69</ele>
        <time>2023-01-09T00:25:41Z</time>
      </trkpt>
      <trkpt lat="49.00798" lon="1.90958">
        <ele>69</ele>
        <time>2023-01-09T00:25:46Z</time>
      </trkpt>
      <trkpt lat="49.00796" lon="1.90951">
        <ele>69</ele>
        <time>2023-01-09T00:25:52Z</time>
      </trkpt>
      <trkpt lat="49.00796" lon="1.90931">
        <ele>66</ele>
        <time>2023-01-09T00:26:10Z</time>
      </trkpt>
      <trkpt lat="49.00808" lon="1.90912">
        <ele>64</ele>
        <time>2023-01-09T00:26:33Z</time>
      </trkpt>
      <trkpt lat="49.00831" lon="1.90817">
        <ele>56</ele>
        <time>2023-01-09T00:28:01Z</time>
      </trkpt>
      <trkpt lat="49.00828" lon="1.90804">
        <ele>55</ele>
        <time>2023-01-09T00:28:13Z</time>
      </trkpt>
      <trkpt lat="49.0082" lon="1.908">
        <ele>54</ele>
        <time>2023-01-09T00:28:25Z</time>
      </trkpt>
      <trkpt lat="49.00831" lon="1.90784">
        <ele>53</ele>
        <time>2023-01-09T00:28:45Z</time>
      </trkpt>
      <trkpt lat="49.00828" lon="1.90768">
        <ele>51</ele>
        <time>2023-01-09T00:29:00Z</time>
      </trkpt>
      <trkpt lat="49.00832" lon="1.90753">
        <ele>49</ele>
        <time>2023-01-09T00:29:14Z</time>
      </trkpt>
      <trkpt lat="49.00826" lon="1.90749">
        <ele>48</ele>
        <time>2023-01-09T00:29:22Z</time>
      </trkpt>
      <trkpt lat="49.00827" lon="1.90699">
        <ele>45</ele>
        <time>2023-01-09T00:30:06Z</time>
      </trkpt>
      <trkpt lat="49.00818" lon="1.90693">
        <ele>43</ele>
        <time>2023-01-09T00:30:19Z</time>
      </trkpt>
      <trkpt lat="49.00796" lon="1.90691">
        <ele>41</ele>
        <time>2023-01-09T00:30:49Z</time>
      </trkpt>
      <trkpt lat="49.0078" lon="1.90666">
        <ele>38</ele>
        <time>2023-01-09T00:31:19Z</time>
      </trkpt>
      <trkpt lat="49.0076" lon="1.90621">
        <ele>32</ele>
        <time>2023-01-09T00:32:07Z</time>
      </trkpt>
      <trkpt lat="49.00751" lon="1.9061">
        <ele>30</ele>
        <time>2023-01-09T00:32:22Z</time>
      </trkpt>
      <trkpt lat="49.00741" lon="1.90583">
        <ele>28</ele>
        <time>2023-01-09T00:32:49Z</time>
      </trkpt>
      <trkpt lat="49.0071" lon="1.90626">
        <ele>30</ele>
        <time>2023-01-09T00:33:45Z</time>
      </trkpt>
      <trkpt lat="49.00678" lon="1.90651">
        <ele>30</ele>
        <time>2023-01-09T00:34:33Z</time>
      </trkpt>
    </trkseg>
  </trk>
</gpx>